Estación municipal de Arbúcies (La Selva, Parc natural del Montseny)

Consulta los datos en tiempo real de la estación municipal de Arbúcies





Hora UTC 20:10
Temperatura 9.1 ºC
Humedad 92.6 %
Presión 1017.0 hPa
Pluja 10.1 mm
Velocidad viento 0.0 km/h
Dirección viento N
Radiación solar 0.0 W/m²

Datos diarios 2026-05-05



Hora UTC (invierno +1h; verano +2h)
Temperatura (ºC) Humedad (%) Presión (hPa) Velocidad viento (km/h) Precipitación (mm) Radiación solar (W/m²)
Hora UTC Aire Humedad Presión Vel. Dir. Vel. Max Dir. Intent. máx 5 min. Rad. Sol.
00:05 9.7 91.6 1019.0 0.0 SW 0.4 WSW 0.0 0.0
00:10 9.6 91.8 1019.0 0.0 WSW 0.4 SW 0.0 0.0
00:15 9.5 91.7 1019.0 0.0 WSW 0.4 W 0.0 0.0
00:20 9.3 91.8 1019.0 0.0 WSW 0.4 WSW 0.0 0.0
00:25 9.2 91.8 1019.0 0.0 WSW 0.4 WSW 0.0 0.0
00:30 9.1 92.0 1019.0 0.0 W 0.4 WNW 0.0 0.0
00:35 9.2 92.2 1019.0 0.0 N 0.4 ENE 0.0 0.0
00:40 9.1 92.0 1019.0 0.0 NW 0.4 NW 0.0 0.0
00:45 9.0 92.2 1019.0 0.0 NW 0.4 NW 0.0 0.0
00:50 9.1 92.5 1019.0 0.0 SW 0.4 NE 0.0 0.0
00:55 9.1 92.3 1019.0 0.0 W 0.4 WSW 0.0 0.0
01:00 9.0 92.3 1019.0 0.0 W 0.4 WNW 0.0 0.0
01:05 8.9 92.2 1019.0 0.0 WNW 0.4 W 0.0 0.0
01:10 8.9 92.5 1019.0 0.0 NW 0.4 NW 0.0 0.0
01:15 8.8 92.5 1019.0 0.0 WSW 0.4 SW 0.0 0.0
01:20 8.8 92.5 1019.0 0.0 SW 0.4 W 0.0 0.0
01:25 8.7 92.5 1019.0 0.0 SW 0.4 SW 0.0 0.0
01:30 8.6 92.7 1019.0 0.0 SW 0.4 W 0.0 0.0
01:35 8.8 92.8 1019.0 0.0 W 0.4 SE 0.0 0.0
01:40 8.7 92.6 1019.0 0.0 WNW 0.4 NNW 0.0 0.0
01:45 8.6 92.8 1019.0 0.0 SW 0.4 SW 0.0 0.0
01:50 8.6 92.8 1019.0 0.0 SW 0.4 W 0.0 0.0
01:55 8.6 92.9 1020.0 0.0 SW 0.4 SW 0.0 0.0
02:00 8.7 93.0 1019.0 0.0 SW 0.4 WSW 0.0 0.0
02:05 8.7 93.0 1019.0 0.0 SSW 0.4 SSW 0.0 0.0
02:10 8.7 93.0 1019.0 0.0 SW 1.1 SW 0.0 0.0
02:15 8.6 93.0 1019.0 0.0 SSW 0.4 SW 0.0 0.0
02:20 8.7 93.1 1019.0 0.0 SW 0.4 SW 0.1 0.0
02:25 8.6 93.0 1019.0 0.0 SW 0.4 SW 0.0 0.0
02:30 8.5 93.0 1019.0 0.0 SSW 0.4 SSW 0.0 0.0
02:35 8.5 93.2 1019.0 0.3 SSW 6.0 SSW 0.0 0.0
02:40 8.6 93.3 1019.0 0.0 SW 0.7 SW 0.0 0.0
02:45 8.5 93.0 1019.0 0.0 SW 0.4 SSW 0.0 0.0
02:50 8.4 93.0 1019.0 0.0 SW 0.4 SSW 0.0 0.0
02:55 8.3 93.1 1020.0 0.0 SW 0.4 SW 0.0 0.0
03:00 8.2 93.0 1019.0 0.0 SW 0.4 SW 0.0 0.0
03:05 8.2 93.2 1019.0 0.1 SW 3.9 SSW 0.0 0.0
03:10 8.2 93.1 1019.0 0.0 SW 1.1 SW 0.0 0.0
03:15 8.2 93.3 1019.0 0.0 SW 0.4 SW 0.0 0.0
03:20 8.2 93.2 1019.0 0.0 SW 0.4 SW 0.0 0.0
03:25 8.2 93.2 1020.0 0.0 SW 0.4 WSW 0.0 0.0
03:30 8.2 93.3 1019.0 0.0 SW 0.7 SW 0.0 0.0
03:35 8.1 93.2 1019.0 0.0 SW 0.4 SW 0.0 0.0
03:40 8.1 93.2 1019.0 0.0 SSW 0.4 SSW 0.0 0.0
03:45 8.1 93.3 1019.0 0.0 WSW 0.7 WSW 0.0 0.0
03:50 8.0 93.2 1019.0 0.0 WSW 0.4 W 0.0 0.0
03:55 7.9 93.1 1019.0 0.0 SW 0.4 SSW 0.0 0.0
04:00 7.8 93.2 1019.0 0.0 SW 0.4 SW 0.0 0.0
04:05 7.8 93.3 1019.0 0.0 SSW 0.4 SSW 0.0 0.0
04:10 7.9 93.3 1019.0 0.0 SSW 1.1 S 0.0 0.0
04:15 8.1 93.6 1019.0 0.4 SSW 7.4 SSW 0.0 0.0
04:20 8.0 93.3 1019.0 0.1 SSW 3.2 SSW 0.0 0.0
04:25 8.1 93.4 1020.0 1.0 SSW 8.1 SSW 0.0 0.0
04:30 8.1 93.4 1019.0 1.3 SSW 7.4 SSW 0.0 0.0
04:35 8.1 93.3 1019.0 0.1 SSW 4.6 SSW 0.0 0.2
04:40 8.0 93.2 1019.0 0.3 SSW 6.0 SW 0.0 1.3
04:45 7.9 93.1 1019.0 0.2 SW 3.5 SW 0.0 3.2
04:50 7.9 93.2 1019.0 0.0 SSW 1.4 SW 0.0 5.4
04:55 7.8 93.1 1019.0 0.0 SSW 0.4 SW 0.0 7.9
05:00 7.8 93.1 1019.0 0.0 SW 0.4 SW 0.0 10.7
05:05 7.8 93.2 1019.0 0.0 SSW 0.7 SW 0.0 13.7
05:10 7.8 93.1 1019.0 0.0 SSW 0.4 S 0.0 16.9
05:15 7.8 93.2 1019.0 0.0 SSW 0.4 S 0.0 27.0
05:20 8.0 93.4 1019.0 0.1 SSW 3.9 SSW 0.0 59.6
05:25 8.2 93.5 1020.0 0.4 SSW 5.6 SSW 0.0 76.6
05:30 8.4 93.3 1019.0 1.7 SSW 9.5 SSW 0.0 91.5
05:35 8.5 93.0 1019.0 2.0 SSW 12.0 SSW 0.0 107.0
05:40 8.7 92.8 1019.0 2.2 SW 10.2 SSW 0.0 121.8
05:45 8.9 92.6 1019.0 3.8 SSW 9.2 SW 0.0 137.8
05:50 9.0 92.1 1019.0 2.4 SSW 10.9 SW 0.0 153.5
05:55 9.3 91.8 1020.0 4.0 SSW 12.0 SSW 0.0 168.3
06:00 9.5 91.0 1019.0 2.2 SW 10.9 WSW 0.0 184.3
06:05 9.9 90.6 1019.0 0.0 SSW 0.4 SW 0.0 199.3
06:10 10.1 89.1 1019.0 1.1 SSW 7.1 SSW 0.0 215.9
06:15 10.4 88.6 1018.0 0.0 SSW 0.4 SSW 0.0 231.6
06:20 10.8 87.2 1019.0 0.2 SSW 5.6 SSW 0.0 250.8
06:25 11.2 86.1 1019.0 0.0 SSW 0.4 SW 0.0 267.6
06:30 11.6 85.6 1019.0 0.0 SW 0.4 SSW 0.0 284.5
06:35 11.9 84.7 1019.0 0.0 SSW 0.4 SW 0.0 300.5
06:40 12.3 82.7 1019.0 0.0 S 0.4 S 0.0 316.5
06:45 12.7 79.8 1019.0 0.0 SSW 0.4 SSW 0.0 334.4
06:50 13.2 78.8 1019.0 0.0 SSW 0.4 S 0.0 350.5
06:55 13.6 77.7 1019.0 0.0 SSW 0.4 S 0.0 367.4
07:00 13.9 76.0 1018.0 0.0 SSW 0.4 SSW 0.0 383.6
07:05 14.5 74.6 1019.0 0.0 ESE 0.4 SSE 0.0 399.3
07:10 14.8 74.0 1019.0 0.0 NNW 0.4 N 0.0 412.9
07:15 14.8 71.0 1019.0 0.0 N 0.4 N 0.0 426.8
07:20 15.3 68.0 1019.0 0.0 NE 0.4 NNE 0.0 443.8
07:25 16.0 66.0 1019.0 0.0 NNE 0.4 NW 0.0 457.6
07:30 16.0 64.2 1019.0 0.0 NNE 0.4 NNE 0.0 473.5
07:35 16.1 63.0 1019.0 0.0 ENE 0.4 E 0.0 490.6
07:40 16.3 64.3 1019.0 0.2 ENE 4.9 ENE 0.0 507.3
07:45 16.3 66.5 1018.0 0.0 NE 0.4 NE 0.0 522.1
07:50 16.5 67.3 1018.0 2.5 NE 12.3 ENE 0.0 539.3
07:55 16.5 69.9 1019.0 0.3 ENE 8.1 ESE 0.0 556.9
08:00 16.5 70.5 1018.0 1.8 ENE 12.0 NE 0.0 577.8
08:05 16.3 71.1 1019.0 4.4 NE 14.5 NE 0.0 608.7
08:10 16.3 70.9 1019.0 2.0 ENE 12.0 NE 0.0 621.6
08:15 16.5 70.2 1019.0 3.5 NE 11.6 ENE 0.0 591.7
08:20 16.6 70.1 1019.0 3.1 NE 12.7 ENE 0.0 656.4
08:25 16.8 69.4 1019.0 2.2 NE 11.6 ENE 0.0 648.7
08:30 16.9 68.3 1019.0 3.6 ENE 10.9 ENE 0.0 664.0
08:35 16.7 68.1 1019.0 1.0 ENE 9.9 ENE 0.0 677.6
08:40 17.0 66.5 1019.0 2.0 NE 10.6 ENE 0.0 664.8
08:45 17.0 66.2 1019.0 0.1 NE 3.2 NE 0.0 649.4
08:50 17.1 65.2 1019.0 0.0 NE 0.4 ENE 0.0 715.6
08:55 17.3 64.2 1019.0 0.0 NE 0.4 ENE 0.0 731.9
09:00 17.5 63.3 1018.0 0.0 ENE 0.4 N 0.0 752.8
09:05 18.2 62.4 1018.0 0.0 ESE 0.4 NE 0.0 795.0
09:10 17.9 60.8 1018.0 0.0 ENE 1.4 ENE 0.0 701.6
09:15 17.7 62.0 1018.0 0.1 E 1.8 ENE 0.0 375.0
09:20 17.5 61.5 1018.0 0.0 NE 0.4 E 0.0 205.0
09:25 17.4 61.7 1019.0 0.0 NE 1.4 NE 0.0 184.6
09:30 17.2 60.8 1019.0 0.5 ENE 7.8 ENE 0.0 160.6
09:35 17.0 60.9 1019.0 0.0 ENE 0.7 NE 0.0 149.6
09:40 17.0 63.4 1019.0 0.0 ENE 0.4 NE 0.0 131.7
09:45 16.9 65.8 1019.0 0.5 ESE 9.9 ESE 0.0 104.4
09:50 16.5 69.2 1019.0 0.2 ENE 5.6 ENE 0.1 86.9
09:55 16.1 72.6 1020.0 0.8 ENE 9.2 ENE 0.1 130.1
10:00 15.7 76.2 1018.0 0.6 NE 6.7 ENE 0.1 154.9
10:05 15.6 78.7 1018.0 0.0 NNW 0.4 ENE 0.0 218.6
10:10 15.6 78.8 1019.0 0.0 ENE 0.7 NE 0.0 307.2
10:15 15.9 79.0 1019.0 0.0 SSE 0.4 WSW 0.0 361.3
10:20 16.2 77.4 1019.0 0.0 ESE 0.4 E 0.0 481.2
10:25 16.3 75.3 1020.0 0.0 NE 0.4 NE 0.0 417.1
10:30 16.3 75.2 1019.0 0.0 NE 0.4 NE 0.0 637.4
10:35 16.7 73.4 1019.0 0.3 ENE 7.1 ENE 0.0 694.3
10:40 17.0 72.9 1019.0 0.0 NE 0.4 ENE 0.0 584.9
10:45 17.1 71.6 1019.0 0.9 NE 7.4 ENE 0.0 295.6
10:50 16.8 70.2 1019.0 4.1 ENE 14.1 ENE 0.0 247.9
10:55 16.7 69.8 1019.0 5.1 ENE 16.2 ENE 0.0 173.9
11:00 16.6 71.0 1019.0 1.5 ENE 11.3 NE 0.0 165.1
11:05 16.6 70.5 1019.0 3.0 ENE 13.1 ENE 0.0 206.5
11:10 16.6 69.7 1019.0 0.5 ENE 7.4 NE 0.0 273.4
11:15 16.7 68.6 1018.0 3.0 ENE 13.1 NE 0.0 265.9
11:20 16.9 68.3 1018.0 4.3 ENE 13.8 E 0.0 657.2
11:25 17.4 70.9 1019.0 2.6 ENE 12.7 ENE 0.0 551.8
11:30 17.4 70.6 1018.0 3.5 NE 14.5 NE 0.0 534.3
11:35 17.0 70.3 1018.0 5.0 NNE 20.5 ENE 0.0 398.6
11:40 17.1 69.8 1018.0 4.3 ENE 16.9 NE 0.0 878.0
11:45 17.5 67.7 1018.0 8.4 NE 20.5 ENE 0.0 1001.0
11:50 17.7 66.0 1018.0 7.8 ENE 22.6 ENE 0.0 1116.0
11:55 17.9 65.4 1019.0 5.4 NE 23.6 ENE 0.0 925.0
12:00 17.8 62.5 1018.0 11.0 NE 26.1 NE 0.0 897.0
12:05 17.8 61.7 1018.0 6.3 NE 19.4 NE 0.0 901.0
12:10 17.9 61.0 1018.0 4.1 NE 14.5 NE 0.0 803.0
12:15 18.1 60.1 1018.0 6.4 ENE 17.3 NE 0.0 923.0
12:20 18.1 60.1 1018.0 6.3 NE 15.9 ENE 0.0 1115.0
12:25 18.6 59.4 1018.0 1.9 NE 10.6 NE 0.0 1120.0
12:30 19.3 56.8 1018.0 3.1 NNE 13.4 NNE 0.0 745.8
12:35 18.6 57.8 1018.0 4.6 NNE 20.1 NNE 0.0 444.7
12:40 18.4 58.9 1018.0 4.9 ENE 14.1 NE 0.0 762.2
12:45 18.5 58.2 1018.0 6.8 NE 23.6 ENE 0.0 462.9
12:50 18.4 58.9 1018.0 4.5 NE 18.0 NE 0.0 585.3
12:55 18.6 58.5 1019.0 8.9 ENE 21.9 NE 0.0 501.2
13:00 18.6 59.7 1018.0 9.3 NE 25.8 ENE 0.0 995.0
13:05 18.9 58.8 1018.0 5.8 ENE 18.7 E 0.0 775.0
13:10 18.6 59.7 1018.0 7.7 ENE 20.1 NE 0.0 497.6
13:15 18.1 61.9 1018.0 7.1 NE 20.5 NE 0.0 457.3
13:20 17.6 62.4 1018.0 4.0 NE 13.8 N 0.0 153.1
13:25 17.1 63.6 1018.0 4.6 ENE 16.2 ENE 0.0 105.1
13:30 17.0 64.6 1018.0 1.4 ENE 9.5 ENE 0.0 244.3
13:35 17.5 63.0 1017.0 1.8 ENE 11.3 ENE 0.0 981.0
13:40 18.1 60.6 1018.0 0.5 NE 9.9 ENE 0.0 366.1
13:45 17.8 60.3 1017.0 4.3 NE 12.3 ENE 0.0 244.9
13:50 17.5 61.7 1017.0 1.1 NE 11.3 NE 0.0 246.2
13:55 17.6 61.4 1018.0 0.8 NNE 13.4 NE 0.0 223.4
14:00 17.6 61.0 1017.0 0.1 NE 1.1 NE 0.0 186.0
14:05 17.7 61.0 1017.0 0.1 NNE 1.1 NW 0.0 107.5
14:10 17.6 60.8 1017.0 5.6 NE 19.8 ENE 0.0 100.0
14:15 17.2 62.0 1017.0 1.9 NE 9.5 NE 0.0 84.4
14:20 17.1 62.9 1017.0 0.2 NE 6.0 ENE 0.0 110.4
14:25 17.3 63.0 1018.0 0.0 NNE 0.4 ENE 0.0 138.1
14:30 17.3 61.3 1017.0 1.2 ENE 9.5 NE 0.0 135.9
14:35 17.2 61.5 1017.0 0.6 E 7.8 E 0.0 145.0
14:40 17.2 62.2 1017.0 0.5 E 6.4 E 0.0 195.3
14:45 17.2 62.6 1017.0 2.0 ENE 9.5 E 0.0 253.5
14:50 17.1 62.4 1017.0 1.8 ENE 10.9 ENE 0.0 227.8
14:55 17.2 62.7 1017.0 0.3 NE 6.7 ENE 0.0 232.5
15:00 17.4 61.8 1017.0 0.4 ENE 5.6 ENE 0.0 335.4
15:05 18.0 60.6 1017.0 0.9 NE 6.4 NE 0.0 664.4
15:10 18.2 59.5 1017.0 1.4 NE 9.9 NE 0.0 360.7
15:15 18.0 59.7 1017.0 2.4 ENE 10.2 NE 0.0 240.5
15:20 17.8 60.4 1017.0 0.4 ENE 6.4 E 0.0 320.5
15:25 17.8 60.5 1017.0 0.2 NE 3.9 NE 0.0 137.2
15:30 17.4 62.0 1017.0 0.0 NNE 0.4 NE 0.0 133.7
15:35 17.4 62.7 1017.0 0.0 NE 0.4 NNE 0.0 139.0
15:40 17.5 62.2 1017.0 0.0 NNW 0.4 NNE 0.0 116.6
15:45 17.5 62.5 1017.0 0.0 NNW 0.4 N 0.0 91.2
15:50 17.5 62.6 1017.0 0.0 NNW 0.4 NW 0.0 89.8
15:55 17.5 62.1 1017.0 0.0 NE 0.4 NW 0.0 76.1
16:00 17.5 63.5 1017.0 0.0 NNW 0.4 NNE 0.0 54.5
16:05 17.3 62.7 1017.0 0.0 SW 0.4 W 0.0 58.2
16:10 17.3 59.2 1017.0 0.0 ESE 0.7 ESE 0.0 74.0
16:15 17.1 58.8 1017.0 0.1 WSW 3.9 SSW 0.0 69.1
16:20 17.0 60.2 1017.0 0.0 E 0.4 NE 0.0 52.0
16:25 16.9 59.2 1017.0 0.0 ESE 0.4 SE 0.0 34.8
16:30 16.7 59.5 1017.0 0.0 SSE 0.7 SSE 0.0 22.2
16:35 16.6 59.8 1017.0 0.5 SE 7.4 SE 0.0 22.2
16:40 16.5 59.1 1017.0 5.3 SW 31.8 S 0.0 8.4
16:45 14.7 58.3 1017.0 11.8 WSW 33.2 SW 2.2 9.5
16:50 10.6 67.8 1018.0 0.1 WSW 2.5 SW 3.2 19.7
16:55 8.7 75.0 1018.0 0.0 WNW 0.4 WSW 0.7 17.1
17:00 8.1 80.4 1017.0 2.2 SW 8.5 SW 0.5 24.1
17:05 8.2 84.3 1017.0 4.9 SW 12.3 SW 0.5 20.8
17:10 8.3 85.3 1018.0 0.0 W 0.4 SW 0.3 13.5
17:15 8.3 86.0 1018.0 0.0 NNW 0.4 WNW 0.4 9.3
17:20 8.3 87.4 1018.0 0.0 NE 0.4 N 0.4 10.8
17:25 8.5 88.1 1019.0 0.0 SW 0.4 E 0.4 17.0
17:30 8.4 88.3 1018.0 0.0 SW 1.4 SW 0.3 19.0
17:35 8.5 88.7 1018.0 0.0 W 0.4 SW 0.3 16.1
17:40 8.3 88.8 1018.0 0.0 SW 0.4 WNW 0.3 12.9
17:45 8.6 89.6 1018.0 0.0 SW 0.4 S 0.1 13.2
17:50 8.5 89.4 1018.0 0.0 SW 0.4 WNW 0.0 13.4
17:55 8.5 90.0 1018.0 0.9 SW 6.0 SSW 0.0 14.9
18:00 8.5 90.4 1017.0 0.0 SW 0.4 SW 0.0 15.1
18:05 8.5 90.4 1018.0 0.0 SSW 0.7 SSW 0.0 14.0
18:10 8.5 90.6 1017.0 0.0 WSW 2.5 SSW 0.0 11.3
18:15 8.4 90.7 1017.0 0.0 WNW 0.4 W 0.0 9.3
18:20 8.4 91.0 1018.0 0.0 WNW 0.7 WNW 0.0 7.4
18:25 8.4 90.9 1018.0 0.0 SW 0.4 WNW 0.0 5.1
18:30 8.5 91.7 1017.0 0.0 SW 0.4 SSW 0.0 4.1
18:35 8.3 91.0 1018.0 0.0 WSW 0.4 WSW 0.0 2.6
18:40 8.4 92.2 1018.0 0.6 SW 6.7 SW 0.0 2.8
18:45 8.5 91.8 1018.0 0.4 WSW 5.6 SW 0.0 2.5
18:50 8.4 91.9 1018.0 0.0 WSW 0.4 SW 0.0 2.2
18:55 8.4 92.2 1018.0 0.0 SW 0.4 SW 0.0 1.5
19:00 8.4 92.4 1017.0 1.0 SW 6.0 SSW 0.0 0.9
19:05 8.7 92.8 1018.0 1.5 SW 9.2 SW 0.0 0.6
19:10 8.8 92.5 1018.0 2.1 SW 7.8 SSW 0.0 0.3
19:15 8.9 92.7 1018.0 5.1 SW 10.2 SSW 0.1 0.1
19:20 9.2 93.2 1018.0 0.8 SW 7.8 SW 0.0 0.3
19:25 9.6 93.0 1018.0 1.0 SSW 7.8 SW 0.0 0.3
19:30 9.3 92.4 1018.0 0.4 SW 5.6 SW 0.0 0.0
19:35 9.4 92.5 1017.0 0.0 WSW 0.4 WSW 0.0 0.0
19:40 9.3 92.5 1017.0 0.0 WSW 0.4 W 0.0 0.0
19:45 9.3 92.7 1017.0 0.0 SW 2.8 W 0.0 0.0
19:50 9.2 92.5 1018.0 0.0 SW 0.7 SSW 0.0 0.0
19:55 9.2 92.6 1017.0 0.0 SSW 0.4 SW 0.0 0.0
20:00 9.2 92.7 1017.0 0.0 SW 0.4 SSW 0.0 0.0
20:05 9.1 92.6 1017.0 0.0 WSW 0.4 W 0.0 0.0
20:10 9.1 92.6 1017.0 0.0 N 0.4 SSW 0.0 0.0
Máxima 19.3 93.6 1020.0 11.8 WSW 33.2 SW 3.2 1120.0
Mínima 7.8 56.8 1017.0
Total 10.1